createdAt,value
2023-01-28T00:00:47.189Z,48.50
2023-01-28T00:06:09.258Z,51.70
2023-01-28T00:11:13.896Z,52.00
2023-01-28T00:16:17.382Z,62.20
2023-01-28T00:21:20.752Z,53.50
2023-01-28T00:26:25.451Z,50.10
2023-01-28T00:31:29.092Z,46.80
2023-01-28T00:36:32.374Z,48.80
2023-01-28T00:41:36.306Z,49.30
2023-01-28T00:46:42.177Z,50.80
2023-01-28T00:51:55.836Z,47.00
2023-01-28T00:56:59.089Z,58.40
2023-01-28T01:02:12.694Z,46.80
2023-01-28T01:07:16.212Z,51.30
2023-01-28T01:12:19.839Z,47.20
2023-01-28T01:17:23.099Z,47.70
2023-01-28T01:22:26.378Z,49.60
2023-01-28T01:27:31.068Z,54.60
2023-01-28T01:32:35.411Z,47.70
2023-01-28T01:37:39.187Z,47.30
2023-01-28T01:42:42.455Z,44.70
2023-01-28T01:48:15.871Z,47.30
2023-01-28T01:53:22.768Z,46.60
2023-01-28T01:58:31.625Z,48.90
2023-01-28T02:03:52.290Z,54.00
2023-01-28T02:08:56.309Z,52.60
2023-01-28T02:14:04.031Z,49.70
2023-01-28T02:19:09.869Z,52.40
2023-01-28T02:24:25.201Z,53.50
2023-01-28T02:29:42.685Z,53.30
2023-01-28T02:34:56.141Z,65.30
2023-01-28T02:40:04.119Z,52.60
2023-01-28T02:45:20.687Z,54.20
2023-01-28T02:50:31.211Z,51.70
2023-01-28T02:55:45.500Z,54.60
2023-01-28T03:01:29.751Z,47.30
2023-01-28T03:06:39.964Z,56.10
2023-01-28T03:12:20.422Z,49.20
2023-01-28T03:17:57.392Z,52.10
2023-01-28T03:23:27.896Z,44.90
2023-01-28T03:28:54.630Z,47.40
2023-01-28T03:34:19.423Z,47.40
2023-01-28T03:39:28.635Z,48.90
2023-01-28T03:44:51.736Z,43.10
2023-01-28T03:49:57.455Z,40.20
2023-01-28T03:55:01.229Z,42.00
2023-01-28T04:00:10.622Z,42.40
2023-01-28T04:05:20.870Z,38.50
2023-01-28T04:10:25.488Z,44.50
2023-01-28T04:15:37.788Z,38.10
2023-01-28T04:20:41.803Z,34.80
2023-01-28T04:25:45.020Z,34.20
2023-01-28T04:30:48.826Z,36.00
2023-01-28T04:36:28.104Z,33.20
2023-01-28T04:41:50.569Z,36.80
2023-01-28T04:46:59.887Z,33.60
2023-01-28T04:52:24.230Z,31.50
2023-01-28T04:57:53.513Z,31.20
2023-01-28T05:02:59.825Z,31.50
2023-01-28T05:08:02.924Z,34.40
2023-01-28T05:13:09.390Z,35.60
2023-01-28T05:18:15.635Z,31.80
2023-01-28T05:23:26.709Z,29.50
2023-01-28T05:28:33.001Z,32.90
2023-01-28T05:33:37.333Z,33.50
2023-01-28T05:38:44.868Z,31.40
2023-01-28T05:43:48.778Z,34.00
2023-01-28T05:49:01.374Z,29.00
2023-01-28T05:54:28.541Z,28.40
2023-01-28T05:59:31.744Z,27.70
2023-01-28T06:04:36.395Z,29.80
2023-01-28T06:09:39.835Z,29.30
2023-01-28T06:14:43.705Z,32.40
2023-01-28T06:20:09.111Z,31.90
2023-01-28T06:25:14.532Z,30.70
2023-01-28T06:30:17.859Z,31.50
2023-01-28T06:35:21.882Z,30.70
2023-01-28T06:40:26.246Z,31.90
2023-01-28T06:45:29.447Z,37.30
2023-01-28T06:50:32.576Z,33.00
2023-01-28T06:55:35.700Z,32.90
2023-01-28T07:00:38.938Z,31.60
2023-01-28T07:05:42.200Z,32.70
2023-01-28T07:10:45.444Z,33.50
2023-01-28T07:15:49.405Z,33.90
2023-01-28T07:20:52.950Z,33.50
2023-01-28T07:25:56.144Z,32.10
2023-01-28T07:30:59.877Z,34.20
2023-01-28T07:36:03.273Z,35.10
2023-01-28T07:41:06.792Z,34.60
2023-01-28T07:46:09.967Z,40.50
2023-01-28T07:51:13.794Z,35.60
2023-01-28T07:56:16.980Z,36.10
2023-01-28T08:01:20.260Z,28.00
2023-01-28T08:06:26.320Z,30.40
2023-01-28T08:11:29.790Z,27.10
2023-01-28T08:16:32.991Z,29.10
2023-01-28T08:21:36.133Z,29.30
2023-01-28T08:26:39.344Z,26.90
2023-01-28T08:31:43.069Z,26.20
2023-01-28T08:36:46.348Z,28.60
2023-01-28T08:41:49.669Z,24.70
2023-01-28T08:46:52.967Z,27.50
2023-01-28T08:51:56.318Z,30.60
2023-01-28T08:56:59.645Z,25.30
2023-01-28T09:02:03.270Z,22.70
2023-01-28T09:07:06.578Z,22.10
2023-01-28T09:12:11.289Z,24.00
2023-01-28T09:17:14.643Z,26.50
2023-01-28T09:22:18.385Z,23.20
2023-01-28T09:27:21.612Z,26.40
2023-01-28T09:32:35.078Z,30.90
2023-01-28T09:37:38.580Z,44.20
2023-01-28T09:42:55.828Z,28.40
2023-01-28T09:48:03.261Z,25.30
2023-01-28T09:53:13.269Z,27.80
2023-01-28T09:58:31.965Z,27.70
2023-01-28T10:10:48.856Z,30.30
2023-01-28T10:15:57.582Z,30.20
2023-01-28T10:21:18.123Z,33.50
2023-01-28T10:26:24.847Z,34.60
2023-01-28T10:38:09.551Z,35.00
2023-01-28T10:43:34.505Z,32.50
2023-01-28T10:49:14.718Z,27.50
2023-01-28T10:54:45.388Z,28.70
2023-01-28T11:00:53.024Z,27.20
2023-01-28T11:11:17.955Z,30.90
2023-01-28T11:16:24.698Z,31.70
2023-01-28T11:22:01.277Z,33.40
2023-01-28T11:27:26.876Z,27.00
2023-01-28T11:32:36.190Z,34.00
2023-01-28T11:37:48.731Z,33.70
2023-01-28T11:42:54.121Z,47.00
2023-01-28T11:48:12.985Z,39.90
2023-01-28T11:53:49.508Z,46.20
2023-01-28T11:59:10.782Z,33.90
2023-01-28T12:04:21.320Z,35.20
2023-01-28T12:10:19.556Z,39.50
2023-01-28T12:16:16.109Z,37.80
2023-01-28T12:22:13.999Z,29.50
2023-01-28T12:27:23.108Z,32.60
2023-01-28T12:33:05.602Z,26.10
2023-01-28T12:38:23.108Z,26.70
2023-01-28T12:43:45.735Z,26.00
2023-01-28T12:54:37.405Z,29.40
2023-01-28T13:00:10.380Z,28.40
2023-01-28T13:05:21.581Z,33.40
2023-01-28T13:10:40.031Z,30.60
2023-01-28T13:15:44.875Z,35.70
2023-01-28T13:20:54.771Z,40.20
2023-01-28T13:26:18.908Z,31.00
2023-01-28T13:31:58.858Z,29.00
2023-01-28T13:37:36.597Z,34.80
2023-01-28T13:42:41.251Z,23.40
2023-01-28T13:47:48.341Z,21.00
2023-01-28T13:52:59.325Z,25.10
2023-01-28T13:58:05.472Z,27.80
2023-01-28T14:03:08.823Z,29.10
2023-01-28T14:08:33.142Z,36.50
2023-01-28T14:14:19.067Z,28.50
2023-01-28T14:19:37.656Z,26.70
2023-01-28T14:24:40.781Z,25.00
2023-01-28T14:30:02.613Z,24.50
2023-01-28T14:35:10.216Z,27.20
2023-01-28T14:40:16.661Z,25.10
2023-01-28T14:45:39.117Z,29.50
2023-01-28T14:51:04.277Z,25.90
2023-01-28T14:56:16.753Z,15.40
2023-01-28T15:01:24.174Z,22.00
2023-01-28T15:06:38.904Z,19.20
2023-01-28T15:11:52.416Z,18.90
2023-01-28T15:16:56.313Z,20.00
2023-01-28T15:22:04.421Z,27.10
2023-01-28T15:27:19.360Z,29.90
2023-01-28T15:32:31.557Z,31.70
2023-01-28T15:37:37.700Z,22.80
2023-01-28T15:42:41.462Z,25.90
2023-01-28T15:47:45.891Z,20.30
2023-01-28T15:52:50.623Z,26.60
2023-01-28T15:57:54.235Z,27.10
2023-01-28T16:03:08.991Z,23.60
2023-01-28T16:08:42.114Z,33.00
2023-01-28T16:13:48.227Z,34.10
2023-01-28T16:18:58.615Z,36.80
2023-01-28T16:24:23.620Z,14.90
2023-01-28T16:29:37.231Z,9.60
2023-01-28T16:34:46.262Z,14.90
2023-01-28T16:40:08.159Z,30.60
2023-01-28T16:45:36.355Z,30.80
2023-01-28T16:51:35.865Z,20.50
2023-01-28T16:56:45.504Z,18.80
2023-01-28T17:01:49.588Z,25.80
2023-01-28T17:06:53.348Z,25.00
2023-01-28T17:11:57.379Z,25.10
2023-01-28T17:17:00.975Z,28.40
2023-01-28T17:22:04.666Z,22.50
2023-01-28T17:27:09.909Z,18.80
2023-01-28T17:32:13.161Z,16.90
2023-01-28T17:37:16.359Z,15.80
2023-01-28T17:42:19.660Z,17.50
2023-01-28T17:47:22.899Z,24.50
2023-01-28T17:52:26.657Z,23.90
2023-01-28T17:57:29.988Z,28.30
2023-01-28T18:02:34.157Z,29.70
2023-01-28T18:07:37.527Z,29.80
2023-01-28T18:12:41.254Z,12.20
2023-01-28T18:17:44.457Z,14.80
2023-01-28T18:22:47.673Z,10.00
2023-01-28T18:27:52.293Z,7.00
2023-01-28T18:32:55.377Z,9.40
2023-01-28T18:38:02.688Z,12.10
2023-01-28T18:43:05.931Z,14.10
2023-01-28T18:48:09.041Z,11.90
2023-01-28T18:53:12.368Z,10.60
2023-01-28T18:58:15.631Z,10.20
2023-01-28T19:03:18.884Z,11.20
2023-01-28T19:08:22.147Z,11.20
2023-01-28T19:13:25.664Z,14.90
2023-01-28T19:18:31.075Z,14.60
2023-01-28T19:23:48.912Z,14.90
2023-01-28T19:28:53.410Z,16.10
2023-01-28T19:33:59.534Z,15.00
2023-01-28T19:39:08.149Z,13.10
2023-01-28T19:44:11.663Z,11.70
2023-01-28T19:49:15.839Z,12.40
2023-01-28T19:54:18.976Z,12.30
2023-01-28T19:59:22.520Z,9.80
2023-01-28T20:04:25.643Z,14.60
2023-01-28T20:09:29.134Z,15.30
2023-01-28T20:14:32.274Z,12.70
2023-01-28T20:19:35.505Z,13.60
2023-01-28T20:24:38.723Z,11.70
2023-01-28T20:29:42.060Z,11.40
2023-01-28T20:34:45.399Z,11.90
2023-01-28T20:39:48.974Z,12.60
2023-01-28T20:44:52.288Z,14.20
2023-01-28T20:49:55.547Z,16.00
2023-01-28T20:54:58.800Z,14.80
2023-01-28T21:00:02.117Z,17.30
2023-01-28T21:05:06.271Z,16.60
2023-01-28T21:10:10.549Z,17.40
2023-01-28T21:15:14.231Z,15.70
2023-01-28T21:20:17.815Z,16.00
2023-01-28T21:25:21.597Z,16.70
2023-01-28T21:30:24.738Z,16.20
2023-01-28T21:35:28.312Z,14.80
2023-01-28T21:40:32.540Z,15.10
2023-01-28T21:45:35.905Z,14.40
2023-01-28T21:50:59.069Z,15.40
2023-01-28T21:56:03.928Z,15.20
2023-01-28T22:01:10.389Z,13.50
2023-01-28T22:06:13.554Z,14.50
2023-01-28T22:11:16.664Z,14.60
2023-01-28T22:16:19.827Z,15.50
2023-01-28T22:21:22.982Z,14.30
2023-01-28T22:26:26.188Z,16.80
2023-01-28T22:31:30.142Z,18.40
2023-01-28T22:36:35.135Z,17.10
2023-01-28T22:41:38.822Z,15.00
2023-01-28T22:46:42.152Z,15.30
2023-01-28T22:51:45.531Z,14.60
2023-01-28T22:56:48.891Z,16.30
2023-01-28T23:01:52.249Z,17.60
2023-01-28T23:06:55.417Z,20.70
2023-01-28T23:11:58.543Z,21.60
2023-01-28T23:17:20.269Z,22.10
2023-01-28T23:22:49.120Z,20.00
2023-01-28T23:27:52.316Z,17.30
2023-01-28T23:32:57.945Z,13.20
2023-01-28T23:38:01.145Z,15.50
2023-01-28T23:43:05.856Z,16.20
2023-01-28T23:48:09.212Z,19.30
2023-01-28T23:53:13.429Z,16.00
2023-01-28T23:58:23.874Z,16.30
